sensor_id;sensor_type;location;lat;lon;timestamp;temperature;humidity
18934;DHT22;9599;53.706;10.384;2023-07-13T00:00:58;18.00;99.90
18934;DHT22;9599;53.706;10.384;2023-07-13T00:03:26;18.00;99.90
18934;DHT22;9599;53.706;10.384;2023-07-13T00:06:01;18.00;99.90
18934;DHT22;9599;53.706;10.384;2023-07-13T00:08:31;17.90;99.90
18934;DHT22;9599;53.706;10.384;2023-07-13T00:11:02;17.90;99.90
18934;DHT22;9599;53.706;10.384;2023-07-13T00:13:30;17.80;99.90
18934;DHT22;9599;53.706;10.384;2023-07-13T00:15:59;17.80;99.90
18934;DHT22;9599;53.706;10.384;2023-07-13T00:18:27;17.70;99.90
18934;DHT22;9599;53.706;10.384;2023-07-13T00:20:56;17.70;99.90
18934;DHT22;9599;53.706;10.384;2023-07-13T00:23:31;17.70;99.90
18934;DHT22;9599;53.706;10.384;2023-07-13T00:26:01;17.70;99.90
18934;DHT22;9599;53.706;10.384;2023-07-13T00:28:30;17.60;99.90
18934;DHT22;9599;53.706;10.384;2023-07-13T00:30:58;17.60;99.90
18934;DHT22;9599;53.706;10.384;2023-07-13T00:33:27;17.60;99.90
18934;DHT22;9599;53.706;10.384;2023-07-13T00:35:56;17.50;99.90
18934;DHT22;9599;53.706;10.384;2023-07-13T00:38:26;17.40;99.90
18934;DHT22;9599;53.706;10.384;2023-07-13T00:40:54;17.40;99.90
18934;DHT22;9599;53.706;10.384;2023-07-13T00:43:27;17.30;99.90
18934;DHT22;9599;53.706;10.384;2023-07-13T00:46:18;17.20;99.90
18934;DHT22;9599;53.706;10.384;2023-07-13T00:48:49;17.20;99.90
18934;DHT22;9599;53.706;10.384;2023-07-13T00:51:22;17.10;99.90
18934;DHT22;9599;53.706;10.384;2023-07-13T00:53:53;17.10;99.90
18934;DHT22;9599;53.706;10.384;2023-07-13T00:56:22;17.00;99.90
18934;DHT22;9599;53.706;10.384;2023-07-13T00:58:52;17.00;99.90
18934;DHT22;9599;53.706;10.384;2023-07-13T01:01:20;16.90;99.90
18934;DHT22;9599;53.706;10.384;2023-07-13T01:03:49;16.90;99.90
18934;DHT22;9599;53.706;10.384;2023-07-13T01:06:17;16.80;99.90
18934;DHT22;9599;53.706;10.384;2023-07-13T01:08:45;16.70;99.90
18934;DHT22;9599;53.706;10.384;2023-07-13T01:11:18;16.70;99.90
18934;DHT22;9599;53.706;10.384;2023-07-13T01:13:46;16.70;99.90
18934;DHT22;9599;53.706;10.384;2023-07-13T01:16:21;16.60;99.90
18934;DHT22;9599;53.706;10.384;2023-07-13T01:18:50;16.60;99.90
18934;DHT22;9599;53.706;10.384;2023-07-13T01:21:19;16.50;99.90
18934;DHT22;9599;53.706;10.384;2023-07-13T01:23:47;16.50;99.90
18934;DHT22;9599;53.706;10.384;2023-07-13T01:26:15;16.40;99.90
18934;DHT22;9599;53.706;10.384;2023-07-13T01:28:43;16.40;99.90
18934;DHT22;9599;53.706;10.384;2023-07-13T01:31:12;16.40;99.90
18934;DHT22;9599;53.706;10.384;2023-07-13T01:33:40;16.30;99.90
18934;DHT22;9599;53.706;10.384;2023-07-13T01:36:10;16.40;99.90
18934;DHT22;9599;53.706;10.384;2023-07-13T01:38:40;16.40;99.90
18934;DHT22;9599;53.706;10.384;2023-07-13T01:41:10;16.30;99.90
18934;DHT22;9599;53.706;10.384;2023-07-13T01:43:39;16.30;99.90
18934;DHT22;9599;53.706;10.384;2023-07-13T01:46:07;16.30;99.90
18934;DHT22;9599;53.706;10.384;2023-07-13T01:48:49;16.30;99.90
18934;DHT22;9599;53.706;10.384;2023-07-13T01:51:18;16.30;99.90
18934;DHT22;9599;53.706;10.384;2023-07-13T01:53:47;16.30;99.90
18934;DHT22;9599;53.706;10.384;2023-07-13T01:56:16;16.20;99.90
18934;DHT22;9599;53.706;10.384;2023-07-13T01:58:45;16.20;99.90
18934;DHT22;9599;53.706;10.384;2023-07-13T02:01:13;16.20;99.90
18934;DHT22;9599;53.706;10.384;2023-07-13T02:03:41;16.20;99.90
18934;DHT22;9599;53.706;10.384;2023-07-13T02:06:09;16.10;99.90
18934;DHT22;9599;53.706;10.384;2023-07-13T02:08:38;16.20;99.90
18934;DHT22;9599;53.706;10.384;2023-07-13T02:11:07;16.10;99.90
18934;DHT22;9599;53.706;10.384;2023-07-13T02:13:35;16.10;99.90
18934;DHT22;9599;53.706;10.384;2023-07-13T02:16:04;16.10;99.90
18934;DHT22;9599;53.706;10.384;2023-07-13T02:18:33;16.00;99.90
18934;DHT22;9599;53.706;10.384;2023-07-13T02:21:01;16.00;99.90
18934;DHT22;9599;53.706;10.384;2023-07-13T02:23:29;16.00;99.90
18934;DHT22;9599;53.706;10.384;2023-07-13T02:25:58;16.00;99.90
18934;DHT22;9599;53.706;10.384;2023-07-13T02:28:28;16.00;99.90
18934;DHT22;9599;53.706;10.384;2023-07-13T02:31:04;15.90;99.90
18934;DHT22;9599;53.706;10.384;2023-07-13T02:33:32;15.90;99.90
18934;DHT22;9599;53.706;10.384;2023-07-13T02:36:00;15.90;99.90
18934;DHT22;9599;53.706;10.384;2023-07-13T02:38:28;15.90;99.90
18934;DHT22;9599;53.706;10.384;2023-07-13T02:40:56;15.90;99.90
18934;DHT22;9599;53.706;10.384;2023-07-13T02:43:25;15.90;99.90
18934;DHT22;9599;53.706;10.384;2023-07-13T02:45:54;15.90;99.90
18934;DHT22;9599;53.706;10.384;2023-07-13T02:48:23;15.90;99.90
18934;DHT22;9599;53.706;10.384;2023-07-13T02:50:50;15.90;99.90
18934;DHT22;9599;53.706;10.384;2023-07-13T02:53:19;15.90;99.90
18934;DHT22;9599;53.706;10.384;2023-07-13T02:55:47;15.90;99.90
18934;DHT22;9599;53.706;10.384;2023-07-13T02:58:15;15.90;99.90
18934;DHT22;9599;53.706;10.384;2023-07-13T03:00:45;15.90;99.90
18934;DHT22;9599;53.706;10.384;2023-07-13T03:03:14;15.90;99.90
18934;DHT22;9599;53.706;10.384;2023-07-13T03:05:44;15.90;99.90
18934;DHT22;9599;53.706;10.384;2023-07-13T03:08:19;15.90;99.90
18934;DHT22;9599;53.706;10.384;2023-07-13T03:10:49;15.90;99.90
18934;DHT22;9599;53.706;10.384;2023-07-13T03:13:28;15.80;99.90
18934;DHT22;9599;53.706;10.384;2023-07-13T03:15:57;15.80;99.90
18934;DHT22;9599;53.706;10.384;2023-07-13T03:18:27;15.80;99.90
18934;DHT22;9599;53.706;10.384;2023-07-13T03:20:59;15.70;99.90
18934;DHT22;9599;53.706;10.384;2023-07-13T03:23:28;15.80;99.90
18934;DHT22;9599;53.706;10.384;2023-07-13T03:26:04;15.70;99.90
18934;DHT22;9599;53.706;10.384;2023-07-13T03:28:32;15.70;99.90
18934;DHT22;9599;53.706;10.384;2023-07-13T03:31:04;15.70;99.90
18934;DHT22;9599;53.706;10.384;2023-07-13T03:33:34;15.70;99.90
18934;DHT22;9599;53.706;10.384;2023-07-13T03:36:05;15.80;99.90
18934;DHT22;9599;53.706;10.384;2023-07-13T03:38:33;15.70;99.90
18934;DHT22;9599;53.706;10.384;2023-07-13T03:41:03;15.70;99.90
18934;DHT22;9599;53.706;10.384;2023-07-13T03:43:31;15.80;99.90
18934;DHT22;9599;53.706;10.384;2023-07-13T03:45:59;15.80;99.90
18934;DHT22;9599;53.706;10.384;2023-07-13T03:48:27;15.80;99.90
18934;DHT22;9599;53.706;10.384;2023-07-13T03:50:56;15.80;99.90
18934;DHT22;9599;53.706;10.384;2023-07-13T03:53:24;15.90;99.90
18934;DHT22;9599;53.706;10.384;2023-07-13T03:55:52;15.90;99.90
18934;DHT22;9599;53.706;10.384;2023-07-13T03:58:27;15.90;99.90
18934;DHT22;9599;53.706;10.384;2023-07-13T04:01:01;15.90;99.90
18934;DHT22;9599;53.706;10.384;2023-07-13T04:03:29;16.00;99.90
18934;DHT22;9599;53.706;10.384;2023-07-13T04:06:02;16.00;99.90
18934;DHT22;9599;53.706;10.384;2023-07-13T04:08:33;16.00;99.90
18934;DHT22;9599;53.706;10.384;2023-07-13T04:11:02;16.10;99.90
18934;DHT22;9599;53.706;10.384;2023-07-13T04:13:31;16.10;99.90
18934;DHT22;9599;53.706;10.384;2023-07-13T04:15:59;16.00;99.90
18934;DHT22;9599;53.706;10.384;2023-07-13T04:18:27;16.10;99.90
18934;DHT22;9599;53.706;10.384;2023-07-13T04:20:55;16.10;99.90
18934;DHT22;9599;53.706;10.384;2023-07-13T04:23:24;16.20;99.90
18934;DHT22;9599;53.706;10.384;2023-07-13T04:25:53;16.30;99.90
18934;DHT22;9599;53.706;10.384;2023-07-13T04:28:23;16.30;99.90
18934;DHT22;9599;53.706;10.384;2023-07-13T04:30:51;16.40;99.90
18934;DHT22;9599;53.706;10.384;2023-07-13T04:33:19;16.40;99.90
18934;DHT22;9599;53.706;10.384;2023-07-13T04:35:49;16.40;99.90
18934;DHT22;9599;53.706;10.384;2023-07-13T04:38:27;16.40;99.90
18934;DHT22;9599;53.706;10.384;2023-07-13T04:40:56;16.50;99.90
18934;DHT22;9599;53.706;10.384;2023-07-13T04:43:25;16.50;99.90
18934;DHT22;9599;53.706;10.384;2023-07-13T04:45:54;16.50;99.90
18934;DHT22;9599;53.706;10.384;2023-07-13T04:48:22;16.60;99.90
18934;DHT22;9599;53.706;10.384;2023-07-13T04:50:55;16.60;99.90
18934;DHT22;9599;53.706;10.384;2023-07-13T04:53:25;16.60;99.90
18934;DHT22;9599;53.706;10.384;2023-07-13T04:55:53;16.60;99.90
18934;DHT22;9599;53.706;10.384;2023-07-13T04:58:22;16.60;99.90
18934;DHT22;9599;53.706;10.384;2023-07-13T05:00:50;16.70;99.90
18934;DHT22;9599;53.706;10.384;2023-07-13T05:03:18;16.70;99.90
18934;DHT22;9599;53.706;10.384;2023-07-13T05:05:55;16.70;99.90
18934;DHT22;9599;53.706;10.384;2023-07-13T05:08:27;16.90;99.90
18934;DHT22;9599;53.706;10.384;2023-07-13T05:10:55;16.90;99.90
18934;DHT22;9599;53.706;10.384;2023-07-13T05:13:23;17.10;99.90
18934;DHT22;9599;53.706;10.384;2023-07-13T05:15:58;17.30;99.90
18934;DHT22;9599;53.706;10.384;2023-07-13T05:18:26;17.40;99.90
18934;DHT22;9599;53.706;10.384;2023-07-13T05:20:58;17.50;99.90
18934;DHT22;9599;53.706;10.384;2023-07-13T05:23:28;17.70;99.90
18934;DHT22;9599;53.706;10.384;2023-07-13T05:25:56;17.80;99.90
18934;DHT22;9599;53.706;10.384;2023-07-13T05:28:25;17.90;99.90
18934;DHT22;9599;53.706;10.384;2023-07-13T05:30:53;18.10;99.90
18934;DHT22;9599;53.706;10.384;2023-07-13T05:33:22;18.10;99.90
18934;DHT22;9599;53.706;10.384;2023-07-13T05:35:51;18.20;99.90
18934;DHT22;9599;53.706;10.384;2023-07-13T05:38:19;18.40;99.90
18934;DHT22;9599;53.706;10.384;2023-07-13T05:40:49;18.50;99.90
18934;DHT22;9599;53.706;10.384;2023-07-13T05:43:18;18.70;99.90
18934;DHT22;9599;53.706;10.384;2023-07-13T05:45:45;18.80;99.90
18934;DHT22;9599;53.706;10.384;2023-07-13T05:48:13;19.00;99.90
18934;DHT22;9599;53.706;10.384;2023-07-13T05:50:41;18.90;99.90
18934;DHT22;9599;53.706;10.384;2023-07-13T05:53:11;19.00;99.90
18934;DHT22;9599;53.706;10.384;2023-07-13T05:55:41;19.30;99.90
18934;DHT22;9599;53.706;10.384;2023-07-13T05:58:11;19.50;99.90
18934;DHT22;9599;53.706;10.384;2023-07-13T06:00:39;19.50;99.90
18934;DHT22;9599;53.706;10.384;2023-07-13T06:03:07;19.50;99.90
18934;DHT22;9599;53.706;10.384;2023-07-13T06:05:36;19.80;99.90
18934;DHT22;9599;53.706;10.384;2023-07-13T06:08:07;20.00;99.90
18934;DHT22;9599;53.706;10.384;2023-07-13T06:10:36;20.30;99.90
18934;DHT22;9599;53.706;10.384;2023-07-13T06:13:04;20.60;99.90
18934;DHT22;9599;53.706;10.384;2023-07-13T06:15:33;20.40;99.90
18934;DHT22;9599;53.706;10.384;2023-07-13T06:18:02;20.10;99.90
18934;DHT22;9599;53.706;10.384;2023-07-13T06:20:30;20.10;99.90
18934;DHT22;9599;53.706;10.384;2023-07-13T06:22:58;20.20;99.90
18934;DHT22;9599;53.706;10.384;2023-07-13T06:25:26;20.20;99.90
18934;DHT22;9599;53.706;10.384;2023-07-13T06:27:54;20.00;99.90
18934;DHT22;9599;53.706;10.384;2023-07-13T06:30:22;20.00;99.90
18934;DHT22;9599;53.706;10.384;2023-07-13T06:32:52;20.00;99.90
18934;DHT22;9599;53.706;10.384;2023-07-13T06:35:20;20.00;99.90
18934;DHT22;9599;53.706;10.384;2023-07-13T06:37:48;20.00;99.90
18934;DHT22;9599;53.706;10.384;2023-07-13T06:40:16;20.00;99.90
18934;DHT22;9599;53.706;10.384;2023-07-13T06:42:44;19.90;99.90
18934;DHT22;9599;53.706;10.384;2023-07-13T06:45:12;19.90;99.90
18934;DHT22;9599;53.706;10.384;2023-07-13T06:47:40;19.70;99.90
18934;DHT22;9599;53.706;10.384;2023-07-13T06:50:10;19.60;99.90
18934;DHT22;9599;53.706;10.384;2023-07-13T06:52:38;19.50;99.90
18934;DHT22;9599;53.706;10.384;2023-07-13T06:55:07;19.60;99.90
18934;DHT22;9599;53.706;10.384;2023-07-13T06:57:35;19.60;99.90
18934;DHT22;9599;53.706;10.384;2023-07-13T07:00:03;19.60;99.90
18934;DHT22;9599;53.706;10.384;2023-07-13T07:02:33;19.50;99.90
18934;DHT22;9599;53.706;10.384;2023-07-13T07:05:01;19.60;99.90
18934;DHT22;9599;53.706;10.384;2023-07-13T07:07:31;19.70;99.90
18934;DHT22;9599;53.706;10.384;2023-07-13T07:09:58;19.70;99.90
18934;DHT22;9599;53.706;10.384;2023-07-13T07:12:27;19.60;99.90
18934;DHT22;9599;53.706;10.384;2023-07-13T07:14:55;19.70;99.90
18934;DHT22;9599;53.706;10.384;2023-07-13T07:17:23;20.00;99.90
18934;DHT22;9599;53.706;10.384;2023-07-13T07:19:52;20.00;99.90
18934;DHT22;9599;53.706;10.384;2023-07-13T07:22:20;19.90;99.90
18934;DHT22;9599;53.706;10.384;2023-07-13T07:24:49;19.90;99.90
18934;DHT22;9599;53.706;10.384;2023-07-13T07:27:17;20.20;99.90
18934;DHT22;9599;53.706;10.384;2023-07-13T07:29:48;20.40;99.90
18934;DHT22;9599;53.706;10.384;2023-07-13T07:32:36;20.30;99.90
18934;DHT22;9599;53.706;10.384;2023-07-13T07:35:07;19.90;99.90
18934;DHT22;9599;53.706;10.384;2023-07-13T07:37:35;19.70;99.90
18934;DHT22;9599;53.706;10.384;2023-07-13T07:40:08;19.90;99.90
18934;DHT22;9599;53.706;10.384;2023-07-13T07:42:39;20.20;99.90
18934;DHT22;9599;53.706;10.384;2023-07-13T07:45:07;20.50;99.90
18934;DHT22;9599;53.706;10.384;2023-07-13T07:47:38;20.80;99.90
18934;DHT22;9599;53.706;10.384;2023-07-13T07:50:06;20.60;99.90
18934;DHT22;9599;53.706;10.384;2023-07-13T07:52:34;20.50;99.90
18934;DHT22;9599;53.706;10.384;2023-07-13T07:55:04;20.40;99.90
18934;DHT22;9599;53.706;10.384;2023-07-13T07:57:36;20.60;99.90
18934;DHT22;9599;53.706;10.384;2023-07-13T08:00:08;20.90;99.90
18934;DHT22;9599;53.706;10.384;2023-07-13T08:02:43;21.00;99.90
18934;DHT22;9599;53.706;10.384;2023-07-13T08:05:14;21.10;99.90
18934;DHT22;9599;53.706;10.384;2023-07-13T08:07:45;21.30;99.90
18934;DHT22;9599;53.706;10.384;2023-07-13T08:10:13;21.30;99.90
18934;DHT22;9599;53.706;10.384;2023-07-13T08:12:42;21.10;99.90
18934;DHT22;9599;53.706;10.384;2023-07-13T08:15:31;21.60;99.90
18934;DHT22;9599;53.706;10.384;2023-07-13T08:17:59;22.00;99.90
18934;DHT22;9599;53.706;10.384;2023-07-13T08:20:27;22.00;99.90
18934;DHT22;9599;53.706;10.384;2023-07-13T08:22:54;22.00;99.90
18934;DHT22;9599;53.706;10.384;2023-07-13T08:25:22;22.30;99.90
18934;DHT22;9599;53.706;10.384;2023-07-13T08:27:52;22.20;99.90
18934;DHT22;9599;53.706;10.384;2023-07-13T08:30:20;22.30;99.90
18934;DHT22;9599;53.706;10.384;2023-07-13T08:32:48;22.60;99.90
18934;DHT22;9599;53.706;10.384;2023-07-13T08:35:17;22.60;99.90
18934;DHT22;9599;53.706;10.384;2023-07-13T08:37:45;22.70;99.90
18934;DHT22;9599;53.706;10.384;2023-07-13T08:40:13;22.80;99.90
18934;DHT22;9599;53.706;10.384;2023-07-13T08:42:45;23.00;99.90
18934;DHT22;9599;53.706;10.384;2023-07-13T08:45:20;23.10;99.90
18934;DHT22;9599;53.706;10.384;2023-07-13T08:47:53;23.30;99.90
18934;DHT22;9599;53.706;10.384;2023-07-13T08:50:26;23.50;99.90
18934;DHT22;9599;53.706;10.384;2023-07-13T08:52:56;23.40;99.90
18934;DHT22;9599;53.706;10.384;2023-07-13T08:55:29;23.20;99.90
18934;DHT22;9599;53.706;10.384;2023-07-13T08:58:02;22.80;99.90
18934;DHT22;9599;53.706;10.384;2023-07-13T09:00:41;22.60;99.90
18934;DHT22;9599;53.706;10.384;2023-07-13T09:03:18;22.50;99.90
18934;DHT22;9599;53.706;10.384;2023-07-13T09:05:52;22.70;99.90
18934;DHT22;9599;53.706;10.384;2023-07-13T09:08:38;23.20;99.90
18934;DHT22;9599;53.706;10.384;2023-07-13T09:11:18;23.50;99.90
18934;DHT22;9599;53.706;10.384;2023-07-13T09:13:52;23.00;99.90
18934;DHT22;9599;53.706;10.384;2023-07-13T09:16:24;23.10;99.90
18934;DHT22;9599;53.706;10.384;2023-07-13T09:18:56;22.90;99.90
18934;DHT22;9599;53.706;10.384;2023-07-13T09:21:27;22.60;99.90
18934;DHT22;9599;53.706;10.384;2023-07-13T09:24:13;22.10;99.90
18934;DHT22;9599;53.706;10.384;2023-07-13T09:26:45;21.50;99.90
18934;DHT22;9599;53.706;10.384;2023-07-13T09:29:19;21.10;99.90
18934;DHT22;9599;53.706;10.384;2023-07-13T09:31:53;21.30;99.90
18934;DHT22;9599;53.706;10.384;2023-07-13T09:34:22;21.80;99.90
18934;DHT22;9599;53.706;10.384;2023-07-13T09:36:49;22.00;99.90
18934;DHT22;9599;53.706;10.384;2023-07-13T09:39:25;22.40;99.90
18934;DHT22;9599;53.706;10.384;2023-07-13T09:41:59;22.90;99.90
18934;DHT22;9599;53.706;10.384;2023-07-13T09:44:30;23.50;99.90
18934;DHT22;9599;53.706;10.384;2023-07-13T09:47:00;23.20;99.90
18934;DHT22;9599;53.706;10.384;2023-07-13T09:49:33;23.00;99.90
18934;DHT22;9599;53.706;10.384;2023-07-13T09:52:04;22.90;99.90
18934;DHT22;9599;53.706;10.384;2023-07-13T09:54:34;22.80;99.90
18934;DHT22;9599;53.706;10.384;2023-07-13T09:57:08;22.70;99.90
18934;DHT22;9599;53.706;10.384;2023-07-13T09:59:43;22.40;99.90
18934;DHT22;9599;53.706;10.384;2023-07-13T10:02:29;22.80;99.90
18934;DHT22;9599;53.706;10.384;2023-07-13T10:05:01;22.70;99.90
18934;DHT22;9599;53.706;10.384;2023-07-13T10:07:31;23.00;99.90
18934;DHT22;9599;53.706;10.384;2023-07-13T10:10:00;23.30;99.90
18934;DHT22;9599;53.706;10.384;2023-07-13T10:12:35;23.90;99.90
18934;DHT22;9599;53.706;10.384;2023-07-13T10:15:13;24.10;99.90
18934;DHT22;9599;53.706;10.384;2023-07-13T10:17:53;24.20;99.90
18934;DHT22;9599;53.706;10.384;2023-07-13T10:20:25;24.60;99.90
18934;DHT22;9599;53.706;10.384;2023-07-13T10:22:57;23.90;99.90
18934;DHT22;9599;53.706;10.384;2023-07-13T10:25:31;23.50;99.90
18934;DHT22;9599;53.706;10.384;2023-07-13T10:28:04;23.80;99.90
18934;DHT22;9599;53.706;10.384;2023-07-13T10:30:35;24.20;99.90
18934;DHT22;9599;53.706;10.384;2023-07-13T10:33:11;24.00;99.90
18934;DHT22;9599;53.706;10.384;2023-07-13T10:35:43;23.80;99.90
18934;DHT22;9599;53.706;10.384;2023-07-13T10:38:14;23.60;99.90
18934;DHT22;9599;53.706;10.384;2023-07-13T10:40:47;23.70;99.90
18934;DHT22;9599;53.706;10.384;2023-07-13T10:43:19;24.00;99.90
18934;DHT22;9599;53.706;10.384;2023-07-13T10:45:48;23.90;99.90
18934;DHT22;9599;53.706;10.384;2023-07-13T10:48:19;24.00;99.90
18934;DHT22;9599;53.706;10.384;2023-07-13T10:50:49;23.70;99.90
18934;DHT22;9599;53.706;10.384;2023-07-13T10:53:21;24.00;99.90
18934;DHT22;9599;53.706;10.384;2023-07-13T10:55:59;24.30;99.90
18934;DHT22;9599;53.706;10.384;2023-07-13T10:58:33;24.40;99.90
18934;DHT22;9599;53.706;10.384;2023-07-13T11:01:07;24.50;99.90
18934;DHT22;9599;53.706;10.384;2023-07-13T11:03:47;24.80;99.90
18934;DHT22;9599;53.706;10.384;2023-07-13T11:06:28;24.80;99.90
18934;DHT22;9599;53.706;10.384;2023-07-13T11:08:59;24.80;99.90
18934;DHT22;9599;53.706;10.384;2023-07-13T11:11:35;25.10;99.90
18934;DHT22;9599;53.706;10.384;2023-07-13T11:14:04;25.30;99.90
18934;DHT22;9599;53.706;10.384;2023-07-13T11:16:37;25.30;99.90
18934;DHT22;9599;53.706;10.384;2023-07-13T11:19:40;25.20;99.90
18934;DHT22;9599;53.706;10.384;2023-07-13T11:22:21;25.30;99.90
18934;DHT22;9599;53.706;10.384;2023-07-13T11:24:58;24.50;99.90
18934;DHT22;9599;53.706;10.384;2023-07-13T11:27:40;24.10;99.90
18934;DHT22;9599;53.706;10.384;2023-07-13T11:30:22;23.80;99.90
18934;DHT22;9599;53.706;10.384;2023-07-13T11:33:02;23.80;99.90
18934;DHT22;9599;53.706;10.384;2023-07-13T11:35:35;23.70;99.90
18934;DHT22;9599;53.706;10.384;2023-07-13T11:38:13;23.60;99.90
18934;DHT22;9599;53.706;10.384;2023-07-13T11:40:44;23.50;99.90
18934;DHT22;9599;53.706;10.384;2023-07-13T11:43:23;23.00;99.90
18934;DHT22;9599;53.706;10.384;2023-07-13T11:45:52;22.50;99.90
18934;DHT22;9599;53.706;10.384;2023-07-13T11:48:26;21.90;99.90
18934;DHT22;9599;53.706;10.384;2023-07-13T11:51:00;21.50;99.90
18934;DHT22;9599;53.706;10.384;2023-07-13T11:53:32;21.50;99.90
18934;DHT22;9599;53.706;10.384;2023-07-13T11:56:04;21.60;99.90
18934;DHT22;9599;53.706;10.384;2023-07-13T11:58:33;21.60;99.90
18934;DHT22;9599;53.706;10.384;2023-07-13T12:01:02;21.30;99.90
18934;DHT22;9599;53.706;10.384;2023-07-13T12:03:33;21.20;99.90
18934;DHT22;9599;53.706;10.384;2023-07-13T12:06:05;21.20;99.90
18934;DHT22;9599;53.706;10.384;2023-07-13T12:08:38;21.10;99.90
18934;DHT22;9599;53.706;10.384;2023-07-13T12:11:16;20.90;99.90
18934;DHT22;9599;53.706;10.384;2023-07-13T12:13:45;21.10;99.90
18934;DHT22;9599;53.706;10.384;2023-07-13T12:16:16;21.20;99.90
18934;DHT22;9599;53.706;10.384;2023-07-13T12:18:45;21.50;99.90
18934;DHT22;9599;53.706;10.384;2023-07-13T12:21:18;21.80;99.90
18934;DHT22;9599;53.706;10.384;2023-07-13T12:23:48;22.00;99.90
18934;DHT22;9599;53.706;10.384;2023-07-13T12:26:18;22.20;99.90
18934;DHT22;9599;53.706;10.384;2023-07-13T12:28:48;22.10;99.90
18934;DHT22;9599;53.706;10.384;2023-07-13T12:31:26;21.80;99.90
18934;DHT22;9599;53.706;10.384;2023-07-13T12:33:59;21.70;99.90
18934;DHT22;9599;53.706;10.384;2023-07-13T12:36:32;22.00;99.90
18934;DHT22;9599;53.706;10.384;2023-07-13T12:39:04;21.40;99.90
18934;DHT22;9599;53.706;10.384;2023-07-13T12:41:33;20.80;99.90
18934;DHT22;9599;53.706;10.384;2023-07-13T12:44:01;20.40;99.90
18934;DHT22;9599;53.706;10.384;2023-07-13T12:46:30;20.10;99.90
18934;DHT22;9599;53.706;10.384;2023-07-13T12:48:58;19.70;99.90
18934;DHT22;9599;53.706;10.384;2023-07-13T12:51:49;19.10;99.90
18934;DHT22;9599;53.706;10.384;2023-07-13T12:54:18;18.70;99.90
18934;DHT22;9599;53.706;10.384;2023-07-13T12:56:49;18.30;99.90
18934;DHT22;9599;53.706;10.384;2023-07-13T12:59:20;18.00;99.90
18934;DHT22;9599;53.706;10.384;2023-07-13T13:01:49;17.60;99.90
18934;DHT22;9599;53.706;10.384;2023-07-13T13:04:18;17.50;99.90
18934;DHT22;9599;53.706;10.384;2023-07-13T13:07:01;17.40;99.90
18934;DHT22;9599;53.706;10.384;2023-07-13T13:09:29;17.70;99.90
18934;DHT22;9599;53.706;10.384;2023-07-13T13:11:58;17.90;99.90
18934;DHT22;9599;53.706;10.384;2023-07-13T13:14:26;18.10;99.90
18934;DHT22;9599;53.706;10.384;2023-07-13T13:16:54;18.10;99.90
18934;DHT22;9599;53.706;10.384;2023-07-13T13:19:24;18.10;99.90
18934;DHT22;9599;53.706;10.384;2023-07-13T13:21:55;18.40;99.90
18934;DHT22;9599;53.706;10.384;2023-07-13T13:24:26;18.70;99.90
18934;DHT22;9599;53.706;10.384;2023-07-13T13:26:55;18.90;99.90
18934;DHT22;9599;53.706;10.384;2023-07-13T13:29:25;19.00;99.90
18934;DHT22;9599;53.706;10.384;2023-07-13T13:31:53;19.30;99.90
18934;DHT22;9599;53.706;10.384;2023-07-13T13:34:23;19.40;99.90
18934;DHT22;9599;53.706;10.384;2023-07-13T13:36:53;19.30;99.90
18934;DHT22;9599;53.706;10.384;2023-07-13T13:39:31;19.30;99.90
18934;DHT22;9599;53.706;10.384;2023-07-13T13:42:00;19.40;99.90
18934;DHT22;9599;53.706;10.384;2023-07-13T13:44:28;19.50;99.90
18934;DHT22;9599;53.706;10.384;2023-07-13T13:46:57;19.40;99.90
18934;DHT22;9599;53.706;10.384;2023-07-13T13:49:27;19.50;99.90
18934;DHT22;9599;53.706;10.384;2023-07-13T13:51:57;19.50;99.90
18934;DHT22;9599;53.706;10.384;2023-07-13T13:54:26;19.70;99.90
18934;DHT22;9599;53.706;10.384;2023-07-13T13:56:55;19.50;99.90
18934;DHT22;9599;53.706;10.384;2023-07-13T13:59:26;19.50;99.90
18934;DHT22;9599;53.706;10.384;2023-07-13T14:01:54;19.50;99.90
18934;DHT22;9599;53.706;10.384;2023-07-13T14:04:22;19.60;99.90
18934;DHT22;9599;53.706;10.384;2023-07-13T14:06:50;19.90;99.90
18934;DHT22;9599;53.706;10.384;2023-07-13T14:09:20;20.00;99.90
18934;DHT22;9599;53.706;10.384;2023-07-13T14:11:49;20.10;99.90
18934;DHT22;9599;53.706;10.384;2023-07-13T14:14:20;20.20;99.90
18934;DHT22;9599;53.706;10.384;2023-07-13T14:16:49;20.30;99.90
18934;DHT22;9599;53.706;10.384;2023-07-13T14:19:21;20.30;99.90
18934;DHT22;9599;53.706;10.384;2023-07-13T14:21:49;20.40;99.90
18934;DHT22;9599;53.706;10.384;2023-07-13T14:24:21;20.20;99.90
18934;DHT22;9599;53.706;10.384;2023-07-13T14:26:49;20.20;99.90
18934;DHT22;9599;53.706;10.384;2023-07-13T14:29:18;20.00;99.90
18934;DHT22;9599;53.706;10.384;2023-07-13T14:31:50;20.10;99.90
18934;DHT22;9599;53.706;10.384;2023-07-13T14:34:19;20.10;99.90
18934;DHT22;9599;53.706;10.384;2023-07-13T14:36:48;20.20;99.90
18934;DHT22;9599;53.706;10.384;2023-07-13T14:39:19;19.90;99.90
18934;DHT22;9599;53.706;10.384;2023-07-13T14:41:50;19.80;99.90
18934;DHT22;9599;53.706;10.384;2023-07-13T14:44:22;19.70;99.90
18934;DHT22;9599;53.706;10.384;2023-07-13T14:46:51;19.50;99.90
18934;DHT22;9599;53.706;10.384;2023-07-13T14:49:24;19.50;99.90
18934;DHT22;9599;53.706;10.384;2023-07-13T14:51:52;19.70;99.90
18934;DHT22;9599;53.706;10.384;2023-07-13T14:54:20;19.80;99.90
18934;DHT22;9599;53.706;10.384;2023-07-13T14:56:49;19.90;99.90
18934;DHT22;9599;53.706;10.384;2023-07-13T14:59:18;20.00;99.90
18934;DHT22;9599;53.706;10.384;2023-07-13T15:01:47;20.30;99.90
18934;DHT22;9599;53.706;10.384;2023-07-13T15:04:16;20.40;99.90
18934;DHT22;9599;53.706;10.384;2023-07-13T15:06:53;20.50;99.90
18934;DHT22;9599;53.706;10.384;2023-07-13T15:09:22;20.40;99.90
18934;DHT22;9599;53.706;10.384;2023-07-13T15:11:52;20.40;99.90
18934;DHT22;9599;53.706;10.384;2023-07-13T15:14:20;20.40;99.90
18934;DHT22;9599;53.706;10.384;2023-07-13T15:16:51;20.40;99.90
18934;DHT22;9599;53.706;10.384;2023-07-13T15:19:19;20.50;99.90
18934;DHT22;9599;53.706;10.384;2023-07-13T15:21:48;20.30;99.90
18934;DHT22;9599;53.706;10.384;2023-07-13T15:24:16;20.00;99.90
18934;DHT22;9599;53.706;10.384;2023-07-13T15:26:44;19.90;99.90
18934;DHT22;9599;53.706;10.384;2023-07-13T15:29:17;20.00;99.90
18934;DHT22;9599;53.706;10.384;2023-07-13T15:31:45;20.30;99.90
18934;DHT22;9599;53.706;10.384;2023-07-13T15:34:16;20.60;99.90
18934;DHT22;9599;53.706;10.384;2023-07-13T15:36:45;20.70;99.90
18934;DHT22;9599;53.706;10.384;2023-07-13T15:39:15;20.60;99.90
18934;DHT22;9599;53.706;10.384;2023-07-13T15:41:44;20.50;99.90
18934;DHT22;9599;53.706;10.384;2023-07-13T15:44:27;20.30;99.90
18934;DHT22;9599;53.706;10.384;2023-07-13T15:46:56;20.60;99.90
18934;DHT22;9599;53.706;10.384;2023-07-13T15:49:27;20.70;99.90
18934;DHT22;9599;53.706;10.384;2023-07-13T15:51:55;21.00;99.90